createdAt,value
2023-12-14T00:00:02.812Z,104.97
2023-12-14T00:01:02.397Z,105.44
2023-12-14T00:02:02.717Z,103.8
2023-12-14T00:03:02.374Z,103.33
2023-12-14T00:04:02.385Z,103.33
2023-12-14T00:05:02.628Z,103.57
2023-12-14T00:06:02.379Z,103.33
2023-12-14T00:07:02.163Z,102.87
2023-12-14T00:08:02.270Z,102.87
2023-12-14T00:09:02.190Z,104.27
2023-12-14T00:10:02.961Z,103.33
2023-12-14T00:11:02.429Z,102.63
2023-12-14T00:12:02.505Z,102.4
2023-12-14T00:13:02.344Z,101.93
2023-12-14T00:15:02.970Z,101
2023-12-14T00:16:02.555Z,101.7
2023-12-14T00:17:02.065Z,101.93
2023-12-14T00:18:02.736Z,103.33
2023-12-14T00:19:02.697Z,104.73
2023-12-14T00:20:03.207Z,104.73
2023-12-14T00:21:02.359Z,104.97
2023-12-14T00:22:02.309Z,106.37
2023-12-14T00:23:02.757Z,106.37
2023-12-14T00:24:02.995Z,106.14
2023-12-14T00:25:02.565Z,105.9
2023-12-14T00:26:02.522Z,106.84
2023-12-14T00:27:02.222Z,107.54
2023-12-14T00:28:01.883Z,107.3
2023-12-14T00:29:02.911Z,107.77
2023-12-14T00:30:02.087Z,108
2023-12-14T00:32:02.326Z,108
2023-12-14T00:33:03.026Z,107.77
2023-12-14T00:34:02.626Z,107.77
2023-12-14T00:35:02.270Z,107.3
2023-12-14T00:36:02.837Z,107.77
2023-12-14T00:37:02.090Z,107.54
2023-12-14T00:38:02.313Z,106.84
2023-12-14T00:39:02.669Z,108.47
2023-12-14T00:40:02.512Z,108.47
2023-12-14T00:41:02.384Z,109.64
2023-12-14T00:42:02.389Z,108
2023-12-14T00:43:07.384Z,109.64
2023-12-14T00:44:03.439Z,110.81
2023-12-14T00:45:02.486Z,111.27
2023-12-14T00:47:02.113Z,111.74
2023-12-14T00:48:02.996Z,112.21
2023-12-14T00:49:03.042Z,111.51
2023-12-14T00:50:02.763Z,112.44
2023-12-14T00:51:01.918Z,112.44
2023-12-14T00:52:02.866Z,112.68
2023-12-14T00:53:01.822Z,113.38
2023-12-14T00:54:02.965Z,115.01
2023-12-14T00:55:02.426Z,114.54
2023-12-14T00:57:02.020Z,113.84
2023-12-14T00:58:02.668Z,114.08
2023-12-14T00:59:02.096Z,112.68
2023-12-14T01:00:02.643Z,113.38
2023-12-14T01:01:02.461Z,113.14
2023-12-14T01:02:02.538Z,113.84
2023-12-14T01:03:02.044Z,113.38
2023-12-14T01:04:02.743Z,113.61
2023-12-14T01:05:03.516Z,113.14
2023-12-14T01:06:01.926Z,113.14
2023-12-14T01:07:02.623Z,112.68
2023-12-14T01:08:02.423Z,113.61
2023-12-14T01:09:02.316Z,113.84
2023-12-14T01:10:02.097Z,114.08
2023-12-14T01:11:02.340Z,113.38
2023-12-14T01:12:02.254Z,113.61
2023-12-14T01:13:02.433Z,114.08
2023-12-14T01:14:02.614Z,112.44
2023-12-14T01:15:02.701Z,111.74
2023-12-14T01:16:02.478Z,112.44
2023-12-14T01:17:02.664Z,112.44
2023-12-14T01:18:02.103Z,111.97
2023-12-14T01:19:02.435Z,111.51
2023-12-14T01:20:02.789Z,111.97
2023-12-14T01:23:02.227Z,110.34
2023-12-14T01:24:02.898Z,110.34
2023-12-14T01:25:02.157Z,110.81
2023-12-14T01:26:02.998Z,110.34
2023-12-14T01:27:02.652Z,109.17
2023-12-14T01:28:02.453Z,108.7
2023-12-14T01:29:02.308Z,109.64
2023-12-14T01:30:02.380Z,110.11
2023-12-14T01:31:02.414Z,110.57
2023-12-14T01:32:02.872Z,109.87
2023-12-14T01:33:02.808Z,110.57
2023-12-14T01:34:02.672Z,111.97
2023-12-14T01:35:02.910Z,111.51
2023-12-14T01:36:02.697Z,111.97
2023-12-14T01:37:02.517Z,111.27
2023-12-14T01:38:02.653Z,109.87
2023-12-14T01:39:02.079Z,109.87
2023-12-14T01:40:02.630Z,108.7
2023-12-14T01:41:02.421Z,109.64
2023-12-14T01:42:02.707Z,110.57
2023-12-14T01:43:02.358Z,108.47
2023-12-14T01:44:02.357Z,109.17
2023-12-14T01:45:02.680Z,107.77
2023-12-14T01:47:02.117Z,106.6
2023-12-14T01:48:02.968Z,105.9
2023-12-14T01:49:02.974Z,105.67
2023-12-14T01:50:02.811Z,105.67
2023-12-14T01:51:02.501Z,105.2
2023-12-14T01:52:02.182Z,103.8
2023-12-14T01:53:02.921Z,102.87
2023-12-14T01:54:01.767Z,100.76
2023-12-14T01:55:02.155Z,100.06
2023-12-14T01:56:01.892Z,99.83
2023-12-14T01:57:02.108Z,101.23
2023-12-14T01:58:02.385Z,101
2023-12-14T01:59:02.120Z,101
2023-12-14T02:00:02.303Z,101.7
2023-12-14T02:02:02.605Z,101.47
2023-12-14T02:03:02.035Z,102.17
2023-12-14T02:04:02.342Z,104.5
2023-12-14T02:05:02.567Z,104.97
2023-12-14T02:06:02.800Z,105.9
2023-12-14T02:07:02.633Z,106.37
2023-12-14T02:08:02.320Z,105.44
2023-12-14T02:10:02.408Z,106.14
2023-12-14T02:12:02.543Z,107.77
2023-12-14T02:13:02.217Z,107.54
2023-12-14T02:14:02.987Z,108.94
2023-12-14T02:15:02.027Z,108.94
2023-12-14T02:16:02.797Z,108.24
2023-12-14T02:17:02.766Z,106.84
2023-12-14T02:18:02.413Z,105.9
2023-12-14T02:19:02.188Z,104.73
2023-12-14T02:20:02.325Z,103.1
2023-12-14T02:21:02.790Z,104.73
2023-12-14T02:22:02.420Z,105.44
2023-12-14T02:23:02.336Z,105.44
2023-12-14T02:25:02.416Z,105.44
2023-12-14T02:26:02.156Z,105.9
2023-12-14T02:27:04.050Z,106.84
2023-12-14T02:28:02.445Z,107.3
2023-12-14T02:29:02.516Z,107.3
2023-12-14T02:30:02.416Z,107.3
2023-12-14T02:31:02.533Z,107.3
2023-12-14T02:32:02.506Z,106.6
2023-12-14T02:33:02.637Z,107.54
2023-12-14T02:34:02.700Z,105.9
2023-12-14T02:35:02.289Z,106.84
2023-12-14T02:36:02.588Z,107.07
2023-12-14T02:37:02.642Z,107.07
2023-12-14T02:38:02.351Z,108
2023-12-14T02:39:02.230Z,107.54
2023-12-14T02:40:02.899Z,107.07
2023-12-14T02:41:02.635Z,105.44
2023-12-14T02:42:02.615Z,103.33
2023-12-14T02:43:03.871Z,103.57
2023-12-14T02:44:03.069Z,102.17
2023-12-14T02:45:01.996Z,101.93
2023-12-14T02:46:02.894Z,101.93
2023-12-14T02:47:02.830Z,102.63
2023-12-14T02:48:02.394Z,103.57
2023-12-14T02:49:01.970Z,104.97
2023-12-14T02:50:02.089Z,104.73
2023-12-14T02:51:02.341Z,104.5
2023-12-14T02:52:02.582Z,106.14
2023-12-14T02:53:02.026Z,106.84
2023-12-14T02:54:02.711Z,107.77
2023-12-14T02:55:02.358Z,108.7
2023-12-14T02:56:03.084Z,108.47
2023-12-14T02:57:02.391Z,106.14
2023-12-14T02:59:02.080Z,108
2023-12-14T03:00:02.460Z,108
2023-12-14T03:01:01.719Z,108.24
2023-12-14T03:02:02.307Z,109.17
2023-12-14T03:03:02.089Z,108.7
2023-12-14T03:04:02.494Z,105.67
2023-12-14T03:05:02.492Z,105.44
2023-12-14T03:06:01.960Z,105.2
2023-12-14T03:07:02.632Z,104.73
2023-12-14T03:08:02.983Z,104.5
2023-12-14T03:09:01.892Z,102.63
2023-12-14T03:10:02.552Z,102.17
2023-12-14T03:11:03.047Z,101
2023-12-14T03:12:02.097Z,101.23
2023-12-14T03:13:02.648Z,102.4
2023-12-14T03:14:02.838Z,102.4
2023-12-14T03:15:02.497Z,102.17
2023-12-14T03:16:02.514Z,102.17
2023-12-14T03:17:02.468Z,102.63
2023-12-14T03:18:02.320Z,102.63
2023-12-14T03:19:02.689Z,102.63
2023-12-14T03:20:02.341Z,103.8
2023-12-14T03:21:02.788Z,104.73
2023-12-14T03:22:02.234Z,104.5
2023-12-14T03:23:01.937Z,104.73
2023-12-14T03:24:02.308Z,103.57
2023-12-14T03:25:02.463Z,104.03
2023-12-14T03:26:02.397Z,103.8
2023-12-14T03:27:02.425Z,103.33
2023-12-14T03:28:02.281Z,104.5
2023-12-14T03:29:02.273Z,102.87
2023-12-14T03:30:02.115Z,103.8
2023-12-14T03:31:02.157Z,103.1
2023-12-14T03:32:02.295Z,103.57
2023-12-14T03:33:02.917Z,103.1
2023-12-14T03:34:02.199Z,101.93
2023-12-14T03:35:02.339Z,101.47
2023-12-14T03:36:02.182Z,100.3
2023-12-14T03:37:02.066Z,102.17
2023-12-14T03:38:02.726Z,104.03
2023-12-14T03:39:02.956Z,103.1
2023-12-14T03:40:02.838Z,103.1
2023-12-14T03:41:02.710Z,104.03
2023-12-14T03:42:02.331Z,105.67
2023-12-14T03:43:02.685Z,106.14
2023-12-14T03:44:02.336Z,104.97
2023-12-14T03:45:02.094Z,106.37
2023-12-14T03:46:02.445Z,105.9
2023-12-14T03:48:01.894Z,106.6
2023-12-14T03:49:02.341Z,106.14
2023-12-14T03:50:01.991Z,106.37
2023-12-14T03:51:02.894Z,107.3
2023-12-14T03:52:02.644Z,106.14
2023-12-14T03:53:02.201Z,105.2
2023-12-14T03:54:02.826Z,105.44
2023-12-14T03:55:02.687Z,105.2
2023-12-14T03:56:01.896Z,104.03
2023-12-14T03:57:02.510Z,104.27
2023-12-14T03:58:01.777Z,104.27
2023-12-14T03:59:02.857Z,102.87
2023-12-14T04:00:01.919Z,103.1
2023-12-14T04:01:02.166Z,103.1
2023-12-14T04:02:02.729Z,103.8
2023-12-14T04:03:02.818Z,104.5
2023-12-14T04:04:01.858Z,105.67
2023-12-14T04:05:02.155Z,104.73
2023-12-14T04:06:02.344Z,104.27
2023-12-14T04:07:02.718Z,106.37
2023-12-14T04:08:02.086Z,106.6
2023-12-14T04:09:02.055Z,106.14
2023-12-14T04:10:02.004Z,106.37
2023-12-14T04:11:02.016Z,106.84
2023-12-14T04:12:02.102Z,106.6
2023-12-14T04:13:02.184Z,106.6
2023-12-14T04:14:02.167Z,105.44
2023-12-14T04:15:02.382Z,106.37
2023-12-14T04:16:02.120Z,106.37
2023-12-14T04:17:02.498Z,106.37
2023-12-14T04:18:02.513Z,108
2023-12-14T04:19:02.524Z,108.7
2023-12-14T04:20:02.068Z,109.41
2023-12-14T04:21:02.522Z,108.94
2023-12-14T04:22:02.770Z,109.17
2023-12-14T04:23:02.202Z,109.41
2023-12-14T04:24:02.644Z,109.41
2023-12-14T04:25:01.985Z,109.17
2023-12-14T04:26:03.118Z,109.64
2023-12-14T04:27:02.354Z,110.34
2023-12-14T04:28:02.838Z,108.24
2023-12-14T04:30:02.393Z,108.7
2023-12-14T04:31:01.798Z,110.81
2023-12-14T04:32:02.002Z,110.11
2023-12-14T04:33:02.909Z,109.41
2023-12-14T04:34:02.320Z,111.04
2023-12-14T04:35:02.835Z,111.27
2023-12-14T04:36:02.767Z,112.44
2023-12-14T04:37:02.861Z,110.81
2023-12-14T04:38:03.165Z,110.57
2023-12-14T04:39:02.760Z,111.04
2023-12-14T04:40:01.986Z,111.51
2023-12-14T04:41:02.812Z,110.57
2023-12-14T04:43:02.867Z,109.17
2023-12-14T04:44:02.071Z,110.34
2023-12-14T04:45:02.676Z,108
2023-12-14T04:46:02.901Z,108
2023-12-14T04:48:02.384Z,107.77
2023-12-14T04:49:02.540Z,106.84
2023-12-14T04:50:02.612Z,105.67
2023-12-14T04:51:02.611Z,105.9
2023-12-14T04:52:02.043Z,106.14
2023-12-14T04:53:02.264Z,107.3
2023-12-14T04:55:02.322Z,107.77
2023-12-14T04:56:02.079Z,107.54
2023-12-14T04:57:02.159Z,108.47
2023-12-14T04:58:01.983Z,109.41
2023-12-14T04:59:02.163Z,109.87
2023-12-14T05:00:01.748Z,109.17
2023-12-14T05:01:02.539Z,109.41
2023-12-14T05:02:02.488Z,108.7
2023-12-14T05:03:02.112Z,109.17
2023-12-14T05:04:02.679Z,108.24
2023-12-14T05:05:02.003Z,110.11
2023-12-14T05:06:02.046Z,109.87
2023-12-14T05:07:02.172Z,107.54
2023-12-14T05:08:02.618Z,108.7
2023-12-14T05:09:02.815Z,110.11
2023-12-14T05:11:02.262Z,111.27
2023-12-14T05:12:02.519Z,109.87
2023-12-14T05:13:02.375Z,109.64
2023-12-14T05:14:02.309Z,111.27
2023-12-14T05:15:02.070Z,111.51
2023-12-14T05:16:02.054Z,110.11
2023-12-14T05:17:02.184Z,109.64
2023-12-14T05:18:02.369Z,108.47
2023-12-14T05:20:02.128Z,106.84
2023-12-14T05:22:02.555Z,105.67
2023-12-14T05:24:03.015Z,104.73
2023-12-14T05:25:02.651Z,105.9
2023-12-14T05:26:02.134Z,104.5
2023-12-14T05:27:02.873Z,104.27
2023-12-14T05:28:02.137Z,105.67
2023-12-14T05:29:02.619Z,105.67
2023-12-14T05:30:02.466Z,104.27
2023-12-14T05:31:02.963Z,103.1
2023-12-14T05:32:02.661Z,103.8
2023-12-14T05:33:02.180Z,104.5
2023-12-14T05:34:02.024Z,104.97
2023-12-14T05:35:02.118Z,105.2
2023-12-14T05:36:02.749Z,105.2
2023-12-14T05:37:02.589Z,104.5
2023-12-14T05:38:02.433Z,102.63
2023-12-14T05:39:02.907Z,102.63
2023-12-14T05:41:02.904Z,104.03
2023-12-14T05:42:02.537Z,103.8
2023-12-14T05:43:02.149Z,106.14
2023-12-14T05:44:02.185Z,106.6
2023-12-14T05:45:02.134Z,108.47
2023-12-14T05:46:01.994Z,108.24
2023-12-14T05:47:02.304Z,110.34
2023-12-14T05:48:02.677Z,109.41
2023-12-14T05:49:03.087Z,109.17
2023-12-14T05:50:02.176Z,109.87
2023-12-14T05:51:02.312Z,109.87
2023-12-14T05:52:02.949Z,110.34
2023-12-14T05:53:02.219Z,111.04
2023-12-14T05:54:02.513Z,111.74
2023-12-14T05:55:04.921Z,111.04
2023-12-14T05:56:02.741Z,111.51
2023-12-14T05:57:02.209Z,110.81
2023-12-14T05:58:02.442Z,110.11
2023-12-14T05:59:02.059Z,110.11
2023-12-14T06:00:02.418Z,110.57
2023-12-14T06:01:02.206Z,109.64
2023-12-14T06:02:02.440Z,109.17
2023-12-14T06:03:02.057Z,108.47
2023-12-14T06:04:02.779Z,109.87
2023-12-14T06:05:02.134Z,109.41
2023-12-14T06:06:02.880Z,110.34
2023-12-14T06:07:02.246Z,111.51
2023-12-14T06:08:02.147Z,111.04
2023-12-14T06:09:02.121Z,110.34
2023-12-14T06:10:02.678Z,109.17
2023-12-14T06:11:02.069Z,110.11
2023-12-14T06:12:02.108Z,111.04
2023-12-14T06:13:02.587Z,111.04
2023-12-14T06:14:02.526Z,111.51
2023-12-14T06:15:02.595Z,112.44
2023-12-14T06:16:02.716Z,112.44
2023-12-14T06:17:02.632Z,112.91
2023-12-14T06:18:03.032Z,112.91
2023-12-14T06:19:02.800Z,112.68
2023-12-14T06:20:02.494Z,112.91
2023-12-14T06:22:02.587Z,111.97
2023-12-14T06:23:02.530Z,112.68
2023-12-14T06:24:02.993Z,112.91
2023-12-14T06:25:02.317Z,112.21
2023-12-14T06:26:02.992Z,112.44
2023-12-14T06:27:03.009Z,112.68
2023-12-14T06:28:02.529Z,112.21
2023-12-14T06:29:01.812Z,113.14
2023-12-14T06:30:02.072Z,113.61
2023-12-14T06:31:01.788Z,113.84
2023-12-14T06:32:02.866Z,112.68
2023-12-14T06:33:02.474Z,111.04
2023-12-14T06:34:02.801Z,110.81
2023-12-14T06:35:01.772Z,110.34
2023-12-14T06:36:02.287Z,109.17
2023-12-14T06:37:02.467Z,109.87
2023-12-14T06:38:02.981Z,110.81
2023-12-14T06:39:07.929Z,111.27
2023-12-14T06:40:02.847Z,111.04
2023-12-14T06:41:03.003Z,109.64
2023-12-14T06:42:01.996Z,110.11
2023-12-14T06:43:02.069Z,108.7
2023-12-14T06:44:02.291Z,108.7
2023-12-14T06:45:02.411Z,108.47
2023-12-14T06:46:03.066Z,108.94
2023-12-14T06:47:02.408Z,107.3
2023-12-14T06:49:02.931Z,108
2023-12-14T06:50:02.078Z,108.7
2023-12-14T06:51:02.695Z,108.47
2023-12-14T06:52:02.126Z,109.87
2023-12-14T06:53:01.939Z,108.47
2023-12-14T06:54:02.835Z,106.6
2023-12-14T06:55:02.320Z,106.84
2023-12-14T06:56:02.711Z,107.07
2023-12-14T06:57:02.154Z,107.07
2023-12-14T06:58:02.700Z,106.6
2023-12-14T06:59:02.570Z,106.37
2023-12-14T07:00:02.667Z,106.6
2023-12-14T07:01:01.895Z,106.6
2023-12-14T07:03:02.465Z,107.3
2023-12-14T07:04:02.225Z,106.37
2023-12-14T07:05:02.212Z,105.2
2023-12-14T07:06:02.853Z,104.03
2023-12-14T07:07:02.617Z,103.1
2023-12-14T07:08:02.226Z,103.1
2023-12-14T07:09:02.725Z,102.17
2023-12-14T07:10:02.605Z,101.47
2023-12-14T07:11:02.408Z,101.93
2023-12-14T07:12:03.055Z,101.93
2023-12-14T07:13:02.076Z,100.76
2023-12-14T07:14:02.304Z,100.3
2023-12-14T07:15:02.349Z,99.6
2023-12-14T07:16:02.010Z,100.3
2023-12-14T07:17:02.175Z,100.3
2023-12-14T07:19:02.607Z,101.23
2023-12-14T07:20:02.586Z,101.93
2023-12-14T07:21:01.931Z,101.93
2023-12-14T07:22:02.192Z,103.1
2023-12-14T07:23:02.570Z,104.27
2023-12-14T07:24:02.108Z,104.73
2023-12-14T07:25:01.717Z,104.5
2023-12-14T07:26:03.048Z,105.2
2023-12-14T07:27:02.265Z,104.27
2023-12-14T07:28:02.752Z,104.27
2023-12-14T07:29:02.684Z,103.8
2023-12-14T07:30:03.066Z,104.03
2023-12-14T07:31:02.270Z,104.03
2023-12-14T07:32:03.342Z,106.14
2023-12-14T07:33:02.366Z,108
2023-12-14T07:34:02.296Z,107.77
2023-12-14T07:36:02.570Z,107.3
2023-12-14T07:38:01.960Z,108
2023-12-14T07:39:02.701Z,108.24
2023-12-14T07:40:02.386Z,108.24
2023-12-14T07:41:02.467Z,108.94
2023-12-14T07:42:01.978Z,109.41
2023-12-14T07:43:01.926Z,109.17
2023-12-14T07:44:05.503Z,110.57
2023-12-14T07:45:01.871Z,110.57
2023-12-14T07:46:02.014Z,111.74
2023-12-14T07:47:02.956Z,113.14
2023-12-14T07:48:02.697Z,111.74
2023-12-14T07:49:02.178Z,111.04
2023-12-14T07:50:02.900Z,111.51
2023-12-14T07:52:02.475Z,111.27
2023-12-14T07:53:02.519Z,110.34
2023-12-14T07:54:02.112Z,111.51
2023-12-14T07:56:02.022Z,110.11
2023-12-14T07:57:02.117Z,112.21
2023-12-14T07:58:08.115Z,112.91
2023-12-14T07:59:02.288Z,112.68
2023-12-14T08:00:02.095Z,112.44
2023-12-14T08:01:02.024Z,112.44
2023-12-14T08:02:02.265Z,113.38
2023-12-14T08:03:02.864Z,111.97
2023-12-14T08:04:02.163Z,111.97
2023-12-14T08:05:02.461Z,114.08
2023-12-14T08:06:02.024Z,115.71
2023-12-14T08:08:02.652Z,115.01
2023-12-14T08:09:02.753Z,117.81
2023-12-14T08:10:02.681Z,118.75
2023-12-14T08:13:02.669Z,118.28
2023-12-14T08:14:02.422Z,118.28
2023-12-14T08:15:02.578Z,117.11
2023-12-14T08:16:02.559Z,116.65
2023-12-14T08:17:02.554Z,116.18
2023-12-14T08:18:02.910Z,116.65
2023-12-14T08:19:02.718Z,116.41
2023-12-14T08:20:02.311Z,115.24
2023-12-14T08:21:02.607Z,115.71
2023-12-14T08:22:02.255Z,115.48
2023-12-14T08:23:02.682Z,113.14
2023-12-14T08:24:02.451Z,112.68
2023-12-14T08:25:02.267Z,114.08
2023-12-14T08:26:03.239Z,114.08
2023-12-14T08:27:02.667Z,114.78
2023-12-14T08:28:04.952Z,115.71
2023-12-14T08:29:02.858Z,116.41
2023-12-14T08:30:02.254Z,115.71
2023-12-14T08:31:02.227Z,113.84
2023-12-14T08:32:02.792Z,114.78
2023-12-14T08:33:02.207Z,113.14
2023-12-14T08:34:02.605Z,113.38
2023-12-14T08:35:03.162Z,113.61
2023-12-14T08:36:01.798Z,113.38
2023-12-14T08:37:02.730Z,112.91
2023-12-14T08:38:02.778Z,113.61
2023-12-14T08:39:02.053Z,113.61
2023-12-14T08:40:02.108Z,113.61
2023-12-14T08:41:02.248Z,113.61
2023-12-14T08:42:02.609Z,114.78
2023-12-14T08:43:01.912Z,113.84
2023-12-14T08:44:02.829Z,112.44
2023-12-14T08:45:02.579Z,110.34
2023-12-14T08:46:02.733Z,110.57
2023-12-14T08:47:02.879Z,109.64
2023-12-14T08:49:02.225Z,111.51
2023-12-14T08:50:02.790Z,110.34
2023-12-14T08:51:02.619Z,109.87
2023-12-14T08:52:02.650Z,108.24
2023-12-14T08:53:02.119Z,109.17
2023-12-14T08:54:02.521Z,108.7
2023-12-14T08:55:02.143Z,108.47
2023-12-14T08:56:02.762Z,110.34
2023-12-14T08:57:02.834Z,108.94
2023-12-14T08:58:02.248Z,108.7
2023-12-14T08:59:02.694Z,109.64
2023-12-14T09:00:02.280Z,109.87
2023-12-14T09:01:01.950Z,110.11
2023-12-14T09:03:02.168Z,110.34
2023-12-14T09:04:02.449Z,110.11
2023-12-14T09:05:02.925Z,110.34
2023-12-14T09:06:03.215Z,110.34
2023-12-14T09:07:02.459Z,110.57
2023-12-14T09:08:02.636Z,110.34
2023-12-14T09:09:02.418Z,110.11
2023-12-14T09:10:02.759Z,109.41
2023-12-14T09:11:01.993Z,108.94
2023-12-14T09:12:02.648Z,108.47
2023-12-14T09:13:02.537Z,108.7
2023-12-14T09:14:02.146Z,108.47
2023-12-14T09:15:02.007Z,108.94
2023-12-14T09:16:02.445Z,109.17
2023-12-14T09:17:02.736Z,110.11
2023-12-14T09:18:02.572Z,109.87
2023-12-14T09:19:02.740Z,109.87
2023-12-14T09:20:02.255Z,109.87
2023-12-14T09:21:01.955Z,111.04
2023-12-14T09:22:02.857Z,110.81
2023-12-14T09:23:02.576Z,110.81
2023-12-14T09:24:02.219Z,110.34
2023-12-14T09:25:02.229Z,109.17
2023-12-14T09:26:02.803Z,108.24
2023-12-14T09:28:02.066Z,105.9
2023-12-14T09:29:01.916Z,105.2
2023-12-14T09:30:02.305Z,104.73
2023-12-14T09:31:03.034Z,106.84
2023-12-14T09:32:02.818Z,106.37
2023-12-14T09:33:02.336Z,107.3
2023-12-14T09:34:02.698Z,105.9
2023-12-14T09:35:02.256Z,106.6
2023-12-14T09:36:02.500Z,107.3
2023-12-14T09:37:02.176Z,107.54
2023-12-14T09:38:02.347Z,106.84
2023-12-14T09:39:02.466Z,107.07
2023-12-14T09:40:02.311Z,106.84
2023-12-14T09:41:02.582Z,106.6
2023-12-14T09:42:02.292Z,104.97
2023-12-14T09:43:03.442Z,104.97
2023-12-14T09:44:02.426Z,104.97
2023-12-14T09:45:02.604Z,105.9
2023-12-14T09:46:02.569Z,104.03
2023-12-14T09:47:02.361Z,103.33
2023-12-14T09:48:02.607Z,103.57
2023-12-14T09:49:03.975Z,103.33
2023-12-14T09:50:02.438Z,103.1
2023-12-14T09:51:02.477Z,102.87
2023-12-14T09:52:02.593Z,103.57
2023-12-14T09:53:02.752Z,103.8
2023-12-14T09:54:02.989Z,103.1
2023-12-14T09:55:02.499Z,105.67
2023-12-14T09:56:02.304Z,104.27
2023-12-14T09:57:02.597Z,103.8
2023-12-14T09:58:02.581Z,103.33
2023-12-14T09:59:02.170Z,102.4
2023-12-14T10:00:03.321Z,101.7
2023-12-14T10:01:02.179Z,102.17
2023-12-14T10:02:02.331Z,102.63
2023-12-14T10:03:01.835Z,102.87
2023-12-14T10:04:02.812Z,101.93
2023-12-14T10:05:02.491Z,104.03
2023-12-14T10:09:02.016Z,105.44
2023-12-14T10:10:02.110Z,105.67
2023-12-14T10:12:02.222Z,104.03
2023-12-14T10:13:01.954Z,103.1
2023-12-14T10:14:02.486Z,105.9
2023-12-14T10:15:02.345Z,106.6
2023-12-14T10:16:01.998Z,105.67
2023-12-14T10:17:03.868Z,104.27
2023-12-14T10:18:02.532Z,105.2
2023-12-14T10:19:02.718Z,104.97
2023-12-14T10:20:02.799Z,104.97
2023-12-14T10:21:02.390Z,104.27
2023-12-14T10:22:02.388Z,104.73
2023-12-14T10:23:02.490Z,104.5
2023-12-14T10:24:02.953Z,105.2
2023-12-14T10:25:02.545Z,106.14
2023-12-14T10:26:02.018Z,108
2023-12-14T10:27:02.425Z,108
2023-12-14T10:28:02.315Z,108.24
2023-12-14T10:29:02.567Z,107.77
2023-12-14T10:30:01.968Z,108.24
2023-12-14T10:31:02.032Z,106.84
2023-12-14T10:32:03.016Z,105.9
2023-12-14T10:33:02.742Z,105.67
2023-12-14T10:34:02.299Z,106.6
2023-12-14T10:35:02.961Z,107.07
2023-12-14T10:36:02.043Z,107.3
2023-12-14T10:37:04.382Z,106.37
2023-12-14T10:38:02.190Z,107.3
2023-12-14T10:39:01.947Z,106.84
2023-12-14T10:40:02.603Z,107.54
2023-12-14T10:41:01.692Z,107.77
2023-12-14T10:42:08.265Z,108.7
2023-12-14T10:43:02.465Z,109.17
2023-12-14T10:44:19.028Z,109.41
2023-12-14T10:45:15.428Z,110.34
2023-12-14T10:46:02.829Z,112.44
2023-12-14T10:47:02.328Z,112.68
2023-12-14T10:48:05.323Z,113.14
2023-12-14T10:49:02.661Z,114.31
2023-12-14T10:50:02.364Z,114.54
2023-12-14T10:51:02.611Z,116.65
2023-12-14T10:52:02.386Z,116.18
2023-12-14T10:53:02.885Z,116.88
2023-12-14T10:54:02.236Z,117.81
2023-12-14T10:55:03.005Z,116.18
2023-12-14T10:56:02.453Z,117.11
2023-12-14T10:57:02.724Z,115.95
2023-12-14T10:58:02.471Z,115.24
2023-12-14T10:59:02.318Z,115.24
2023-12-14T11:00:02.137Z,116.88
2023-12-14T11:01:02.660Z,116.65
2023-12-14T11:02:02.048Z,114.54
2023-12-14T11:03:02.546Z,115.24
2023-12-14T11:05:02.023Z,114.31
2023-12-14T11:06:09.918Z,113.84
2023-12-14T11:07:02.667Z,113.84
2023-12-14T11:08:02.106Z,111.97
2023-12-14T11:09:02.751Z,112.91
2023-12-14T11:10:02.605Z,112.91
2023-12-14T11:11:02.518Z,113.84
2023-12-14T11:12:02.139Z,113.84
2023-12-14T11:13:02.000Z,114.78
2023-12-14T11:14:02.882Z,111.51
2023-12-14T11:15:02.186Z,111.04
2023-12-14T11:16:02.703Z,112.44
2023-12-14T11:17:02.197Z,113.14
2023-12-14T11:18:02.904Z,112.21
2023-12-14T11:19:02.366Z,112.44
2023-12-14T11:20:02.896Z,112.91
2023-12-14T11:21:02.868Z,113.38
2023-12-14T11:22:02.628Z,111.51
2023-12-14T11:23:02.673Z,112.68
2023-12-14T11:26:02.734Z,110.81
2023-12-14T11:27:02.063Z,111.27
2023-12-14T11:29:02.705Z,111.27
2023-12-14T11:30:02.844Z,111.04
2023-12-14T11:31:02.128Z,112.21
2023-12-14T11:32:02.169Z,113.61
2023-12-14T11:33:01.988Z,113.84
2023-12-14T11:34:03.019Z,115.01
2023-12-14T11:35:02.395Z,115.95
2023-12-14T11:36:02.335Z,115.24
2023-12-14T11:37:02.777Z,114.54
2023-12-14T11:38:02.156Z,113.61
2023-12-14T11:39:02.721Z,113.38
2023-12-14T11:40:02.158Z,113.38
2023-12-14T11:41:02.001Z,113.84
2023-12-14T11:42:02.291Z,112.91
2023-12-14T11:43:02.164Z,113.38
2023-12-14T11:44:02.286Z,113.38
2023-12-14T11:45:02.303Z,113.61
2023-12-14T11:46:02.556Z,113.38
2023-12-14T11:47:02.178Z,113.14
2023-12-14T11:48:02.493Z,111.27
2023-12-14T11:49:02.284Z,111.27
2023-12-14T11:50:02.430Z,110.81
2023-12-14T11:51:02.275Z,110.11
2023-12-14T11:52:02.228Z,111.27
2023-12-14T11:53:02.200Z,110.34
2023-12-14T11:54:02.268Z,109.87
2023-12-14T11:55:02.090Z,110.11
2023-12-14T11:56:01.968Z,110.11
2023-12-14T11:57:01.605Z,110.11
2023-12-14T11:58:02.146Z,111.74
2023-12-14T11:59:02.193Z,111.51
2023-12-14T12:01:02.208Z,111.97
2023-12-14T12:02:07.653Z,112.68
2023-12-14T12:03:02.413Z,112.21
2023-12-14T12:04:02.158Z,111.04
2023-12-14T12:06:02.626Z,109.64
2023-12-14T12:07:02.704Z,110.57
2023-12-14T12:08:02.533Z,110.57
2023-12-14T12:09:02.757Z,111.27
2023-12-14T12:10:02.499Z,111.27
2023-12-14T12:11:02.590Z,111.27
2023-12-14T12:12:02.670Z,111.04
2023-12-14T12:13:02.151Z,110.81
2023-12-14T12:14:02.471Z,110.81
2023-12-14T12:15:02.730Z,111.04
2023-12-14T12:16:02.231Z,111.27
2023-12-14T12:17:02.188Z,110.81
2023-12-14T12:18:02.745Z,111.74
2023-12-14T12:19:02.177Z,110.81
2023-12-14T12:20:02.081Z,110.11
2023-12-14T12:21:02.273Z,109.41
2023-12-14T12:22:02.994Z,111.04
2023-12-14T12:23:02.280Z,110.34
2023-12-14T12:24:07.196Z,110.34
2023-12-14T12:25:11.980Z,108.47
2023-12-14T12:26:02.012Z,109.17
2023-12-14T12:27:02.410Z,108.7
2023-12-14T12:28:02.097Z,108.94
2023-12-14T12:29:02.731Z,108.94
2023-12-14T12:30:02.599Z,109.17
2023-12-14T12:31:02.738Z,109.17
2023-12-14T12:32:02.858Z,107.77
2023-12-14T12:33:02.703Z,107.77
2023-12-14T12:34:02.511Z,106.37
2023-12-14T12:35:02.024Z,103.8
2023-12-14T12:36:02.068Z,103.57
2023-12-14T12:37:02.680Z,104.03
2023-12-14T12:38:02.621Z,104.73
2023-12-14T12:39:02.522Z,105.44
2023-12-14T12:40:03.091Z,105.44
2023-12-14T12:41:02.517Z,105.2
2023-12-14T12:42:02.832Z,106.14
2023-12-14T12:43:01.952Z,106.14
2023-12-14T12:44:02.418Z,106.14
2023-12-14T12:45:02.547Z,104.97
2023-12-14T12:46:02.818Z,104.5
2023-12-14T12:47:08.769Z,104.03
2023-12-14T12:48:02.519Z,105.44
2023-12-14T12:49:02.389Z,105.2
2023-12-14T12:50:02.020Z,107.07
2023-12-14T12:51:02.258Z,106.84
2023-12-14T12:52:02.703Z,106.84
2023-12-14T12:53:02.132Z,106.84
2023-12-14T12:54:10.133Z,106.84
2023-12-14T12:55:02.380Z,105.2
2023-12-14T12:56:02.474Z,105.67
2023-12-14T12:57:02.929Z,105.9
2023-12-14T12:58:02.832Z,105.9
2023-12-14T12:59:02.162Z,105.67
2023-12-14T13:00:02.726Z,104.27
2023-12-14T13:01:02.217Z,103.57
2023-12-14T13:02:02.536Z,103.1
2023-12-14T13:03:02.807Z,103.57
2023-12-14T13:04:02.284Z,103.57
2023-12-14T13:05:02.353Z,103.57
2023-12-14T13:06:02.865Z,103.57
2023-12-14T13:07:02.768Z,103.1
2023-12-14T13:08:02.041Z,103.1
2023-12-14T13:09:02.622Z,100.76
2023-12-14T13:10:06.016Z,100.53
2023-12-14T13:11:02.211Z,99.36
2023-12-14T13:12:02.345Z,99.6
2023-12-14T13:13:02.596Z,99.6
2023-12-14T13:14:02.539Z,99.83
2023-12-14T13:15:02.756Z,101.23
2023-12-14T13:16:02.883Z,100.3
2023-12-14T13:17:02.337Z,101
2023-12-14T13:18:02.392Z,99.83
2023-12-14T13:19:02.394Z,100.53
2023-12-14T13:20:02.004Z,101.93